sensor_id;sensor_type;location;lat;lon;timestamp;P1;durP1;ratioP1;P2;durP2;ratioP2
27889;SDS011;15238;49.082;9.102;2023-03-17T00:00:56;10.73;;;5.65;;
27889;SDS011;15238;49.082;9.102;2023-03-17T00:02:57;7.50;;;4.57;;
27889;SDS011;15238;49.082;9.102;2023-03-17T00:04:58;7.80;;;4.40;;
27889;SDS011;15238;49.082;9.102;2023-03-17T00:06:59;8.48;;;3.80;;
27889;SDS011;15238;49.082;9.102;2023-03-17T00:08:59;7.28;;;4.10;;
27889;SDS011;15238;49.082;9.102;2023-03-17T00:11:01;5.68;;;3.92;;
27889;SDS011;15238;49.082;9.102;2023-03-17T00:13:01;7.10;;;3.88;;
27889;SDS011;15238;49.082;9.102;2023-03-17T00:15:02;4.63;;;3.13;;
27889;SDS011;15238;49.082;9.102;2023-03-17T00:17:04;5.70;;;3.50;;
27889;SDS011;15238;49.082;9.102;2023-03-17T00:19:05;5.90;;;3.40;;
27889;SDS011;15238;49.082;9.102;2023-03-17T00:21:09;8.10;;;3.53;;
27889;SDS011;15238;49.082;9.102;2023-03-17T00:23:18;6.82;;;3.60;;
27889;SDS011;15238;49.082;9.102;2023-03-17T00:25:26;7.40;;;4.13;;
27889;SDS011;15238;49.082;9.102;2023-03-17T00:27:28;4.75;;;3.05;;
27889;SDS011;15238;49.082;9.102;2023-03-17T00:29:29;5.78;;;3.88;;
27889;SDS011;15238;49.082;9.102;2023-03-17T00:31:29;8.40;;;3.33;;
27889;SDS011;15238;49.082;9.102;2023-03-17T00:33:30;5.60;;;3.38;;
27889;SDS011;15238;49.082;9.102;2023-03-17T00:35:33;5.82;;;3.90;;
27889;SDS011;15238;49.082;9.102;2023-03-17T00:37:33;5.63;;;3.80;;
27889;SDS011;15238;49.082;9.102;2023-03-17T00:39:34;6.60;;;3.13;;
27889;SDS011;15238;49.082;9.102;2023-03-17T00:41:35;6.03;;;3.88;;
27889;SDS011;15238;49.082;9.102;2023-03-17T00:43:36;6.65;;;3.70;;
27889;SDS011;15238;49.082;9.102;2023-03-17T00:45:38;8.32;;;5.47;;
27889;SDS011;15238;49.082;9.102;2023-03-17T00:47:40;8.52;;;4.88;;
27889;SDS011;15238;49.082;9.102;2023-03-17T00:49:41;9.43;;;5.18;;
27889;SDS011;15238;49.082;9.102;2023-03-17T00:51:43;6.75;;;4.45;;
27889;SDS011;15238;49.082;9.102;2023-03-17T00:53:44;6.28;;;3.88;;
27889;SDS011;15238;49.082;9.102;2023-03-17T00:55:45;4.72;;;3.70;;
27889;SDS011;15238;49.082;9.102;2023-03-17T00:57:47;5.63;;;3.60;;
27889;SDS011;15238;49.082;9.102;2023-03-17T00:59:48;4.78;;;3.25;;
27889;SDS011;15238;49.082;9.102;2023-03-17T01:01:49;4.35;;;3.20;;
27889;SDS011;15238;49.082;9.102;2023-03-17T01:03:50;5.25;;;3.20;;
27889;SDS011;15238;49.082;9.102;2023-03-17T01:05:51;4.53;;;3.40;;
27889;SDS011;15238;49.082;9.102;2023-03-17T01:07:53;6.63;;;3.33;;
27889;SDS011;15238;49.082;9.102;2023-03-17T01:09:55;7.20;;;3.28;;
27889;SDS011;15238;49.082;9.102;2023-03-17T01:11:55;3.60;;;2.78;;
27889;SDS011;15238;49.082;9.102;2023-03-17T01:13:56;5.60;;;3.53;;
27889;SDS011;15238;49.082;9.102;2023-03-17T01:15:56;4.90;;;3.40;;
27889;SDS011;15238;49.082;9.102;2023-03-17T01:18:00;4.38;;;3.00;;
27889;SDS011;15238;49.082;9.102;2023-03-17T01:20:01;4.85;;;3.10;;
27889;SDS011;15238;49.082;9.102;2023-03-17T01:22:04;4.18;;;3.05;;
27889;SDS011;15238;49.082;9.102;2023-03-17T01:24:05;4.82;;;3.35;;
27889;SDS011;15238;49.082;9.102;2023-03-17T01:26:07;4.10;;;2.83;;
27889;SDS011;15238;49.082;9.102;2023-03-17T01:28:12;5.53;;;3.10;;
27889;SDS011;15238;49.082;9.102;2023-03-17T01:32:33;4.82;;;2.75;;
27889;SDS011;15238;49.082;9.102;2023-03-17T01:34:34;4.40;;;3.03;;
27889;SDS011;15238;49.082;9.102;2023-03-17T01:36:34;9.02;;;3.15;;
27889;SDS011;15238;49.082;9.102;2023-03-17T01:38:36;12.40;;;3.58;;
27889;SDS011;15238;49.082;9.102;2023-03-17T01:40:40;5.30;;;3.72;;
27889;SDS011;15238;49.082;9.102;2023-03-17T01:42:46;5.78;;;3.60;;
27889;SDS011;15238;49.082;9.102;2023-03-17T01:47:00;7.13;;;3.20;;
27889;SDS011;15238;49.082;9.102;2023-03-17T01:49:12;4.13;;;3.03;;
27889;SDS011;15238;49.082;9.102;2023-03-17T01:51:15;4.93;;;3.30;;
27889;SDS011;15238;49.082;9.102;2023-03-17T01:53:20;9.80;;;5.63;;
27889;SDS011;15238;49.082;9.102;2023-03-17T01:55:22;6.43;;;3.95;;
27889;SDS011;15238;49.082;9.102;2023-03-17T01:57:26;8.00;;;4.68;;
27889;SDS011;15238;49.082;9.102;2023-03-17T01:59:32;13.55;;;8.02;;
27889;SDS011;15238;49.082;9.102;2023-03-17T02:01:36;5.18;;;3.10;;
27889;SDS011;15238;49.082;9.102;2023-03-17T02:03:41;5.28;;;2.72;;
27889;SDS011;15238;49.082;9.102;2023-03-17T02:05:42;6.97;;;3.28;;
27889;SDS011;15238;49.082;9.102;2023-03-17T02:07:45;4.32;;;3.17;;
27889;SDS011;15238;49.082;9.102;2023-03-17T02:09:45;4.70;;;3.13;;
27889;SDS011;15238;49.082;9.102;2023-03-17T02:11:46;4.93;;;2.85;;
27889;SDS011;15238;49.082;9.102;2023-03-17T02:13:48;4.55;;;3.38;;
27889;SDS011;15238;49.082;9.102;2023-03-17T02:15:49;4.45;;;3.38;;
27889;SDS011;15238;49.082;9.102;2023-03-17T02:17:51;6.32;;;3.40;;
27889;SDS011;15238;49.082;9.102;2023-03-17T02:19:51;5.07;;;3.67;;
27889;SDS011;15238;49.082;9.102;2023-03-17T02:21:53;4.65;;;3.55;;
27889;SDS011;15238;49.082;9.102;2023-03-17T02:23:57;5.03;;;3.47;;
27889;SDS011;15238;49.082;9.102;2023-03-17T02:26:01;6.75;;;3.38;;
27889;SDS011;15238;49.082;9.102;2023-03-17T02:28:12;6.10;;;3.75;;
27889;SDS011;15238;49.082;9.102;2023-03-17T02:30:16;17.42;;;8.80;;
27889;SDS011;15238;49.082;9.102;2023-03-17T02:32:18;14.10;;;6.95;;
27889;SDS011;15238;49.082;9.102;2023-03-17T02:34:18;9.73;;;5.07;;
27889;SDS011;15238;49.082;9.102;2023-03-17T02:36:19;6.90;;;4.50;;
27889;SDS011;15238;49.082;9.102;2023-03-17T02:38:20;8.40;;;4.65;;
27889;SDS011;15238;49.082;9.102;2023-03-17T02:40:21;6.60;;;3.70;;
27889;SDS011;15238;49.082;9.102;2023-03-17T02:42:23;6.32;;;3.67;;
27889;SDS011;15238;49.082;9.102;2023-03-17T02:44:23;10.18;;;6.05;;
27889;SDS011;15238;49.082;9.102;2023-03-17T02:46:24;11.85;;;5.63;;
27889;SDS011;15238;49.082;9.102;2023-03-17T02:48:26;8.30;;;4.75;;
27889;SDS011;15238;49.082;9.102;2023-03-17T02:50:26;7.45;;;4.30;;
27889;SDS011;15238;49.082;9.102;2023-03-17T02:52:28;6.68;;;3.88;;
27889;SDS011;15238;49.082;9.102;2023-03-17T02:54:28;6.53;;;4.32;;
27889;SDS011;15238;49.082;9.102;2023-03-17T02:56:29;7.82;;;4.40;;
27889;SDS011;15238;49.082;9.102;2023-03-17T02:58:30;6.20;;;3.42;;
27889;SDS011;15238;49.082;9.102;2023-03-17T03:00:30;5.20;;;3.30;;
27889;SDS011;15238;49.082;9.102;2023-03-17T03:02:31;5.70;;;3.72;;
27889;SDS011;15238;49.082;9.102;2023-03-17T03:04:32;6.65;;;3.63;;
27889;SDS011;15238;49.082;9.102;2023-03-17T03:06:32;5.63;;;3.63;;
27889;SDS011;15238;49.082;9.102;2023-03-17T03:08:34;7.50;;;3.47;;
27889;SDS011;15238;49.082;9.102;2023-03-17T03:10:35;5.15;;;3.45;;
27889;SDS011;15238;49.082;9.102;2023-03-17T03:12:35;5.75;;;3.25;;
27889;SDS011;15238;49.082;9.102;2023-03-17T03:14:36;5.50;;;3.10;;
27889;SDS011;15238;49.082;9.102;2023-03-17T03:16:36;4.43;;;3.05;;
27889;SDS011;15238;49.082;9.102;2023-03-17T03:18:37;4.90;;;3.38;;
27889;SDS011;15238;49.082;9.102;2023-03-17T03:20:40;7.70;;;3.17;;
27889;SDS011;15238;49.082;9.102;2023-03-17T03:22:41;5.78;;;3.20;;
27889;SDS011;15238;49.082;9.102;2023-03-17T03:24:42;7.13;;;3.10;;
27889;SDS011;15238;49.082;9.102;2023-03-17T03:26:43;4.13;;;2.88;;
27889;SDS011;15238;49.082;9.102;2023-03-17T03:28:44;4.82;;;3.05;;
27889;SDS011;15238;49.082;9.102;2023-03-17T03:30:44;4.70;;;2.97;;
27889;SDS011;15238;49.082;9.102;2023-03-17T03:32:45;5.45;;;3.10;;
27889;SDS011;15238;49.082;9.102;2023-03-17T03:34:46;4.63;;;2.65;;
27889;SDS011;15238;49.082;9.102;2023-03-17T03:36:47;5.00;;;3.38;;
27889;SDS011;15238;49.082;9.102;2023-03-17T03:38:47;5.30;;;3.42;;
27889;SDS011;15238;49.082;9.102;2023-03-17T03:40:48;5.35;;;2.97;;
27889;SDS011;15238;49.082;9.102;2023-03-17T03:42:48;4.95;;;2.90;;
27889;SDS011;15238;49.082;9.102;2023-03-17T03:44:49;5.43;;;3.33;;
27889;SDS011;15238;49.082;9.102;2023-03-17T03:46:50;8.40;;;2.90;;
27889;SDS011;15238;49.082;9.102;2023-03-17T03:48:51;6.45;;;3.45;;
27889;SDS011;15238;49.082;9.102;2023-03-17T03:50:58;5.65;;;3.10;;
27889;SDS011;15238;49.082;9.102;2023-03-17T03:53:00;4.65;;;3.05;;
27889;SDS011;15238;49.082;9.102;2023-03-17T03:55:00;4.13;;;3.15;;
27889;SDS011;15238;49.082;9.102;2023-03-17T03:57:01;5.72;;;3.22;;
27889;SDS011;15238;49.082;9.102;2023-03-17T03:59:02;4.97;;;3.13;;
27889;SDS011;15238;49.082;9.102;2023-03-17T04:01:03;5.82;;;3.47;;
27889;SDS011;15238;49.082;9.102;2023-03-17T04:03:05;3.45;;;2.50;;
27889;SDS011;15238;49.082;9.102;2023-03-17T04:05:07;6.18;;;2.70;;
27889;SDS011;15238;49.082;9.102;2023-03-17T04:07:08;5.00;;;3.05;;
27889;SDS011;15238;49.082;9.102;2023-03-17T04:09:08;4.72;;;3.00;;
27889;SDS011;15238;49.082;9.102;2023-03-17T04:11:09;4.63;;;3.13;;
27889;SDS011;15238;49.082;9.102;2023-03-17T04:13:10;4.03;;;2.83;;
27889;SDS011;15238;49.082;9.102;2023-03-17T04:15:15;4.32;;;2.90;;
27889;SDS011;15238;49.082;9.102;2023-03-17T04:17:16;6.97;;;3.15;;
27889;SDS011;15238;49.082;9.102;2023-03-17T04:19:17;4.55;;;3.38;;
27889;SDS011;15238;49.082;9.102;2023-03-17T04:21:17;6.57;;;3.72;;
27889;SDS011;15238;49.082;9.102;2023-03-17T04:23:19;4.35;;;2.80;;
27889;SDS011;15238;49.082;9.102;2023-03-17T04:25:20;8.73;;;3.25;;
27889;SDS011;15238;49.082;9.102;2023-03-17T04:27:20;4.05;;;2.58;;
27889;SDS011;15238;49.082;9.102;2023-03-17T04:29:21;5.45;;;3.30;;
27889;SDS011;15238;49.082;9.102;2023-03-17T04:31:21;5.07;;;3.17;;
27889;SDS011;15238;49.082;9.102;2023-03-17T04:33:22;3.85;;;2.85;;
27889;SDS011;15238;49.082;9.102;2023-03-17T04:35:23;4.65;;;3.10;;
27889;SDS011;15238;49.082;9.102;2023-03-17T04:37:23;5.05;;;3.50;;
27889;SDS011;15238;49.082;9.102;2023-03-17T04:39:24;3.80;;;2.90;;
27889;SDS011;15238;49.082;9.102;2023-03-17T04:41:24;6.15;;;3.33;;
27889;SDS011;15238;49.082;9.102;2023-03-17T04:43:25;7.28;;;3.70;;
27889;SDS011;15238;49.082;9.102;2023-03-17T04:45:26;4.10;;;2.72;;
27889;SDS011;15238;49.082;9.102;2023-03-17T04:47:27;4.47;;;2.72;;
27889;SDS011;15238;49.082;9.102;2023-03-17T04:49:27;4.93;;;3.08;;
27889;SDS011;15238;49.082;9.102;2023-03-17T04:51:28;4.82;;;3.38;;
27889;SDS011;15238;49.082;9.102;2023-03-17T04:53:30;5.22;;;3.05;;
27889;SDS011;15238;49.082;9.102;2023-03-17T04:55:30;6.68;;;2.92;;
27889;SDS011;15238;49.082;9.102;2023-03-17T04:57:31;5.28;;;2.80;;
27889;SDS011;15238;49.082;9.102;2023-03-17T04:59:31;6.22;;;3.30;;
27889;SDS011;15238;49.082;9.102;2023-03-17T05:01:32;7.05;;;2.97;;
27889;SDS011;15238;49.082;9.102;2023-03-17T05:03:33;5.15;;;3.10;;
27889;SDS011;15238;49.082;9.102;2023-03-17T05:05:34;6.57;;;3.25;;
27889;SDS011;15238;49.082;9.102;2023-03-17T05:07:35;4.05;;;3.10;;
27889;SDS011;15238;49.082;9.102;2023-03-17T05:09:35;7.97;;;2.95;;
27889;SDS011;15238;49.082;9.102;2023-03-17T05:11:36;4.90;;;3.00;;
27889;SDS011;15238;49.082;9.102;2023-03-17T05:13:37;5.28;;;3.05;;
27889;SDS011;15238;49.082;9.102;2023-03-17T05:15:39;6.57;;;2.85;;
27889;SDS011;15238;49.082;9.102;2023-03-17T05:17:45;8.93;;;3.45;;
27889;SDS011;15238;49.082;9.102;2023-03-17T05:19:46;6.53;;;2.65;;
27889;SDS011;15238;49.082;9.102;2023-03-17T05:21:47;7.25;;;3.38;;
27889;SDS011;15238;49.082;9.102;2023-03-17T05:23:47;7.03;;;3.63;;
27889;SDS011;15238;49.082;9.102;2023-03-17T05:25:48;3.72;;;2.90;;
27889;SDS011;15238;49.082;9.102;2023-03-17T05:27:49;4.07;;;2.92;;
27889;SDS011;15238;49.082;9.102;2023-03-17T05:29:50;3.83;;;2.70;;
27889;SDS011;15238;49.082;9.102;2023-03-17T05:31:51;3.95;;;2.92;;
27889;SDS011;15238;49.082;9.102;2023-03-17T05:33:51;4.32;;;3.13;;
27889;SDS011;15238;49.082;9.102;2023-03-17T05:35:52;4.82;;;3.45;;
27889;SDS011;15238;49.082;9.102;2023-03-17T05:37:53;5.22;;;3.20;;
27889;SDS011;15238;49.082;9.102;2023-03-17T05:39:53;6.28;;;3.13;;
27889;SDS011;15238;49.082;9.102;2023-03-17T05:41:54;5.90;;;3.45;;
27889;SDS011;15238;49.082;9.102;2023-03-17T05:43:56;4.75;;;3.13;;
27889;SDS011;15238;49.082;9.102;2023-03-17T05:45:56;5.35;;;3.05;;
27889;SDS011;15238;49.082;9.102;2023-03-17T05:47:57;4.60;;;3.20;;
27889;SDS011;15238;49.082;9.102;2023-03-17T05:49:59;6.07;;;3.67;;
27889;SDS011;15238;49.082;9.102;2023-03-17T05:52:00;6.10;;;3.38;;
27889;SDS011;15238;49.082;9.102;2023-03-17T05:54:00;8.68;;;4.57;;
27889;SDS011;15238;49.082;9.102;2023-03-17T05:56:01;6.07;;;3.30;;
27889;SDS011;15238;49.082;9.102;2023-03-17T05:58:02;4.80;;;3.22;;
27889;SDS011;15238;49.082;9.102;2023-03-17T06:00:04;6.95;;;3.35;;
27889;SDS011;15238;49.082;9.102;2023-03-17T06:02:06;6.07;;;3.53;;
27889;SDS011;15238;49.082;9.102;2023-03-17T06:04:07;6.80;;;4.22;;
27889;SDS011;15238;49.082;9.102;2023-03-17T06:06:08;6.32;;;3.97;;
27889;SDS011;15238;49.082;9.102;2023-03-17T06:08:08;6.70;;;4.00;;
27889;SDS011;15238;49.082;9.102;2023-03-17T06:10:09;4.72;;;3.80;;
27889;SDS011;15238;49.082;9.102;2023-03-17T06:12:10;6.80;;;3.53;;
27889;SDS011;15238;49.082;9.102;2023-03-17T06:14:11;4.97;;;3.42;;
27889;SDS011;15238;49.082;9.102;2023-03-17T06:16:12;6.95;;;4.20;;
27889;SDS011;15238;49.082;9.102;2023-03-17T06:18:13;5.45;;;4.05;;
27889;SDS011;15238;49.082;9.102;2023-03-17T06:20:13;10.55;;;4.28;;
27889;SDS011;15238;49.082;9.102;2023-03-17T06:22:14;7.20;;;4.03;;
27889;SDS011;15238;49.082;9.102;2023-03-17T06:24:15;7.57;;;4.20;;
27889;SDS011;15238;49.082;9.102;2023-03-17T06:26:16;7.40;;;4.28;;
27889;SDS011;15238;49.082;9.102;2023-03-17T06:28:16;8.00;;;4.25;;
27889;SDS011;15238;49.082;9.102;2023-03-17T06:30:17;8.50;;;4.03;;
27889;SDS011;15238;49.082;9.102;2023-03-17T06:32:18;5.53;;;4.18;;
27889;SDS011;15238;49.082;9.102;2023-03-17T06:34:19;6.15;;;4.15;;
27889;SDS011;15238;49.082;9.102;2023-03-17T06:36:22;6.45;;;4.30;;
27889;SDS011;15238;49.082;9.102;2023-03-17T06:38:23;7.60;;;5.18;;
27889;SDS011;15238;49.082;9.102;2023-03-17T06:40:24;9.55;;;4.50;;
27889;SDS011;15238;49.082;9.102;2023-03-17T06:42:25;8.90;;;5.10;;
27889;SDS011;15238;49.082;9.102;2023-03-17T06:44:25;9.88;;;4.60;;
27889;SDS011;15238;49.082;9.102;2023-03-17T06:46:26;7.93;;;4.15;;
27889;SDS011;15238;49.082;9.102;2023-03-17T06:48:27;9.15;;;4.13;;
27889;SDS011;15238;49.082;9.102;2023-03-17T06:50:27;7.30;;;4.95;;
27889;SDS011;15238;49.082;9.102;2023-03-17T06:52:28;11.55;;;5.80;;
27889;SDS011;15238;49.082;9.102;2023-03-17T06:54:30;12.48;;;5.30;;
27889;SDS011;15238;49.082;9.102;2023-03-17T06:56:31;8.52;;;5.07;;
27889;SDS011;15238;49.082;9.102;2023-03-17T06:58:31;8.57;;;4.38;;
27889;SDS011;15238;49.082;9.102;2023-03-17T07:00:32;6.13;;;4.22;;
27889;SDS011;15238;49.082;9.102;2023-03-17T07:02:33;8.57;;;4.93;;
27889;SDS011;15238;49.082;9.102;2023-03-17T07:04:33;8.68;;;4.95;;
27889;SDS011;15238;49.082;9.102;2023-03-17T07:06:36;9.15;;;5.20;;
27889;SDS011;15238;49.082;9.102;2023-03-17T07:08:38;7.78;;;4.97;;
27889;SDS011;15238;49.082;9.102;2023-03-17T07:10:40;9.07;;;5.00;;
27889;SDS011;15238;49.082;9.102;2023-03-17T07:12:42;7.57;;;5.63;;
27889;SDS011;15238;49.082;9.102;2023-03-17T07:14:43;12.00;;;5.00;;
27889;SDS011;15238;49.082;9.102;2023-03-17T07:16:44;6.45;;;4.30;;
27889;SDS011;15238;49.082;9.102;2023-03-17T07:18:44;7.47;;;4.85;;
27889;SDS011;15238;49.082;9.102;2023-03-17T07:20:45;7.40;;;5.00;;
27889;SDS011;15238;49.082;9.102;2023-03-17T07:22:46;8.85;;;5.07;;
27889;SDS011;15238;49.082;9.102;2023-03-17T07:24:47;9.43;;;4.95;;
27889;SDS011;15238;49.082;9.102;2023-03-17T07:26:48;11.27;;;6.22;;
27889;SDS011;15238;49.082;9.102;2023-03-17T07:28:48;10.00;;;5.35;;
27889;SDS011;15238;49.082;9.102;2023-03-17T07:30:49;10.98;;;4.90;;
27889;SDS011;15238;49.082;9.102;2023-03-17T07:32:50;8.90;;;4.57;;
27889;SDS011;15238;49.082;9.102;2023-03-17T07:34:50;7.60;;;5.00;;
27889;SDS011;15238;49.082;9.102;2023-03-17T07:36:51;10.07;;;5.13;;
27889;SDS011;15238;49.082;9.102;2023-03-17T07:38:52;8.23;;;4.75;;
27889;SDS011;15238;49.082;9.102;2023-03-17T07:40:52;7.35;;;4.80;;
27889;SDS011;15238;49.082;9.102;2023-03-17T07:42:54;11.32;;;4.55;;
27889;SDS011;15238;49.082;9.102;2023-03-17T07:44:55;8.85;;;4.30;;
27889;SDS011;15238;49.082;9.102;2023-03-17T07:46:55;11.32;;;4.82;;
27889;SDS011;15238;49.082;9.102;2023-03-17T07:48:56;11.07;;;4.70;;
27889;SDS011;15238;49.082;9.102;2023-03-17T07:50:57;7.88;;;4.63;;
27889;SDS011;15238;49.082;9.102;2023-03-17T07:52:57;6.25;;;4.38;;
27889;SDS011;15238;49.082;9.102;2023-03-17T07:54:58;8.52;;;4.38;;
27889;SDS011;15238;49.082;9.102;2023-03-17T07:56:58;6.65;;;3.63;;
27889;SDS011;15238;49.082;9.102;2023-03-17T07:58:59;8.88;;;3.97;;
27889;SDS011;15238;49.082;9.102;2023-03-17T08:01:00;9.95;;;4.00;;
27889;SDS011;15238;49.082;9.102;2023-03-17T08:03:01;7.97;;;4.35;;
27889;SDS011;15238;49.082;9.102;2023-03-17T08:05:02;7.13;;;4.20;;
27889;SDS011;15238;49.082;9.102;2023-03-17T08:07:03;6.10;;;3.65;;
27889;SDS011;15238;49.082;9.102;2023-03-17T08:09:05;9.52;;;4.38;;
27889;SDS011;15238;49.082;9.102;2023-03-17T08:11:05;6.68;;;4.10;;
27889;SDS011;15238;49.082;9.102;2023-03-17T08:13:06;7.35;;;3.67;;
27889;SDS011;15238;49.082;9.102;2023-03-17T08:15:07;7.57;;;4.05;;
27889;SDS011;15238;49.082;9.102;2023-03-17T08:17:08;7.05;;;4.15;;
27889;SDS011;15238;49.082;9.102;2023-03-17T08:19:09;7.07;;;4.15;;
27889;SDS011;15238;49.082;9.102;2023-03-17T08:21:10;8.05;;;4.15;;
27889;SDS011;15238;49.082;9.102;2023-03-17T08:23:10;7.70;;;4.10;;
27889;SDS011;15238;49.082;9.102;2023-03-17T08:25:11;7.68;;;4.00;;
27889;SDS011;15238;49.082;9.102;2023-03-17T08:27:12;8.07;;;4.20;;
27889;SDS011;15238;49.082;9.102;2023-03-17T08:29:12;8.75;;;4.00;;
27889;SDS011;15238;49.082;9.102;2023-03-17T08:31:15;4.32;;;3.22;;
27889;SDS011;15238;49.082;9.102;2023-03-17T08:33:17;7.28;;;3.90;;
27889;SDS011;15238;49.082;9.102;2023-03-17T08:35:18;8.02;;;3.60;;
27889;SDS011;15238;49.082;9.102;2023-03-17T08:37:19;9.00;;;4.00;;
27889;SDS011;15238;49.082;9.102;2023-03-17T08:39:21;7.22;;;4.20;;
27889;SDS011;15238;49.082;9.102;2023-03-17T08:41:22;5.85;;;3.83;;
27889;SDS011;15238;49.082;9.102;2023-03-17T08:43:24;6.18;;;3.83;;
27889;SDS011;15238;49.082;9.102;2023-03-17T08:45:25;9.27;;;3.88;;
27889;SDS011;15238;49.082;9.102;2023-03-17T08:47:25;7.68;;;4.68;;
27889;SDS011;15238;49.082;9.102;2023-03-17T08:49:26;6.38;;;4.05;;
27889;SDS011;15238;49.082;9.102;2023-03-17T08:51:31;7.13;;;3.47;;
27889;SDS011;15238;49.082;9.102;2023-03-17T08:53:33;6.80;;;3.97;;
27889;SDS011;15238;49.082;9.102;2023-03-17T08:55:35;10.23;;;4.45;;
27889;SDS011;15238;49.082;9.102;2023-03-17T08:57:36;8.55;;;4.28;;
27889;SDS011;15238;49.082;9.102;2023-03-17T08:59:37;7.07;;;4.20;;
27889;SDS011;15238;49.082;9.102;2023-03-17T09:01:37;6.68;;;4.00;;
27889;SDS011;15238;49.082;9.102;2023-03-17T09:03:39;8.93;;;3.75;;
27889;SDS011;15238;49.082;9.102;2023-03-17T09:05:40;6.03;;;3.58;;
27889;SDS011;15238;49.082;9.102;2023-03-17T09:07:41;9.88;;;4.05;;
27889;SDS011;15238;49.082;9.102;2023-03-17T09:09:42;10.23;;;4.25;;
27889;SDS011;15238;49.082;9.102;2023-03-17T09:11:43;5.30;;;4.00;;
27889;SDS011;15238;49.082;9.102;2023-03-17T09:13:43;7.68;;;4.22;;
27889;SDS011;15238;49.082;9.102;2023-03-17T09:15:45;9.07;;;3.72;;
27889;SDS011;15238;49.082;9.102;2023-03-17T09:17:45;8.48;;;4.00;;
27889;SDS011;15238;49.082;9.102;2023-03-17T09:19:46;7.70;;;3.90;;
27889;SDS011;15238;49.082;9.102;2023-03-17T09:21:47;7.95;;;3.95;;
27889;SDS011;15238;49.082;9.102;2023-03-17T09:23:47;9.32;;;4.18;;
27889;SDS011;15238;49.082;9.102;2023-03-17T09:25:48;5.13;;;3.80;;
27889;SDS011;15238;49.082;9.102;2023-03-17T09:27:48;9.13;;;4.45;;
27889;SDS011;15238;49.082;9.102;2023-03-17T09:29:50;7.55;;;3.80;;
27889;SDS011;15238;49.082;9.102;2023-03-17T09:31:50;5.47;;;3.47;;
27889;SDS011;15238;49.082;9.102;2023-03-17T09:33:51;5.38;;;3.92;;
27889;SDS011;15238;49.082;9.102;2023-03-17T09:35:52;8.95;;;3.97;;
27889;SDS011;15238;49.082;9.102;2023-03-17T09:37:53;8.38;;;4.22;;
27889;SDS011;15238;49.082;9.102;2023-03-17T09:39:53;9.10;;;4.75;;
27889;SDS011;15238;49.082;9.102;2023-03-17T09:42:06;5.30;;;3.28;;
27889;SDS011;15238;49.082;9.102;2023-03-17T09:46:50;5.82;;;3.20;;
27889;SDS011;15238;49.082;9.102;2023-03-17T09:49:08;5.93;;;2.78;;
27889;SDS011;15238;49.082;9.102;2023-03-17T09:51:13;10.27;;;3.80;;
27889;SDS011;15238;49.082;9.102;2023-03-17T09:53:21;5.32;;;3.30;;
27889;SDS011;15238;49.082;9.102;2023-03-17T09:55:27;6.78;;;2.85;;
27889;SDS011;15238;49.082;9.102;2023-03-17T09:57:36;3.63;;;2.67;;
27889;SDS011;15238;49.082;9.102;2023-03-17T09:59:40;4.55;;;2.25;;
27889;SDS011;15238;49.082;9.102;2023-03-17T10:01:42;3.60;;;2.63;;
27889;SDS011;15238;49.082;9.102;2023-03-17T10:03:43;7.63;;;2.97;;
27889;SDS011;15238;49.082;9.102;2023-03-17T10:05:44;5.65;;;3.10;;
27889;SDS011;15238;49.082;9.102;2023-03-17T10:10:00;6.57;;;2.92;;
27889;SDS011;15238;49.082;9.102;2023-03-17T10:16:39;5.60;;;3.28;;
27889;SDS011;15238;49.082;9.102;2023-03-17T10:18:51;5.13;;;2.90;;
27889;SDS011;15238;49.082;9.102;2023-03-17T10:20:58;5.60;;;2.88;;
27889;SDS011;15238;49.082;9.102;2023-03-17T10:23:04;4.45;;;2.78;;
27889;SDS011;15238;49.082;9.102;2023-03-17T10:27:19;6.38;;;2.83;;
27889;SDS011;15238;49.082;9.102;2023-03-17T10:29:21;5.63;;;3.45;;
27889;SDS011;15238;49.082;9.102;2023-03-17T10:31:27;5.78;;;3.38;;
27889;SDS011;15238;49.082;9.102;2023-03-17T10:35:33;5.95;;;2.75;;
27889;SDS011;15238;49.082;9.102;2023-03-17T10:37:36;7.32;;;2.80;;
27889;SDS011;15238;49.082;9.102;2023-03-17T10:39:41;5.93;;;2.78;;
27889;SDS011;15238;49.082;9.102;2023-03-17T10:43:55;6.05;;;2.75;;
27889;SDS011;15238;49.082;9.102;2023-03-17T10:46:01;6.65;;;3.08;;
27889;SDS011;15238;49.082;9.102;2023-03-17T10:48:06;4.80;;;2.80;;
27889;SDS011;15238;49.082;9.102;2023-03-17T10:52:21;5.32;;;2.55;;
27889;SDS011;15238;49.082;9.102;2023-03-17T10:54:24;6.70;;;2.95;;
27889;SDS011;15238;49.082;9.102;2023-03-17T10:56:25;7.22;;;3.28;;
27889;SDS011;15238;49.082;9.102;2023-03-17T10:58:33;5.60;;;3.00;;
27889;SDS011;15238;49.082;9.102;2023-03-17T11:00:55;5.40;;;2.83;;
27889;SDS011;15238;49.082;9.102;2023-03-17T11:03:01;5.43;;;3.20;;
27889;SDS011;15238;49.082;9.102;2023-03-17T11:05:19;7.72;;;3.33;;
27889;SDS011;15238;49.082;9.102;2023-03-17T11:07:33;4.03;;;2.85;;
27889;SDS011;15238;49.082;9.102;2023-03-17T11:09:38;4.50;;;2.63;;
27889;SDS011;15238;49.082;9.102;2023-03-17T11:11:43;6.97;;;2.83;;
27889;SDS011;15238;49.082;9.102;2023-03-17T11:13:45;7.38;;;2.65;;
27889;SDS011;15238;49.082;9.102;2023-03-17T11:15:51;5.03;;;2.40;;
27889;SDS011;15238;49.082;9.102;2023-03-17T11:17:57;4.55;;;2.33;;
27889;SDS011;15238;49.082;9.102;2023-03-17T11:22:39;5.10;;;2.47;;
27889;SDS011;15238;49.082;9.102;2023-03-17T11:24:55;3.08;;;2.08;;
27889;SDS011;15238;49.082;9.102;2023-03-17T11:27:22;4.38;;;1.80;;
27889;SDS011;15238;49.082;9.102;2023-03-17T11:29:37;4.32;;;2.40;;
27889;SDS011;15238;49.082;9.102;2023-03-17T11:34:36;4.72;;;2.63;;
27889;SDS011;15238;49.082;9.102;2023-03-17T11:39:14;5.32;;;2.10;;
27889;SDS011;15238;49.082;9.102;2023-03-17T11:41:25;3.47;;;2.20;;
27889;SDS011;15238;49.082;9.102;2023-03-17T11:48:26;5.60;;;2.30;;
27889;SDS011;15238;49.082;9.102;2023-03-17T11:57:13;6.45;;;2.90;;
27889;SDS011;15238;49.082;9.102;2023-03-17T11:59:40;7.00;;;2.50;;
27889;SDS011;15238;49.082;9.102;2023-03-17T12:02:01;4.03;;;2.55;;
27889;SDS011;15238;49.082;9.102;2023-03-17T12:04:19;4.22;;;2.33;;
27889;SDS011;15238;49.082;9.102;2023-03-17T12:06:30;4.20;;;2.60;;
27889;SDS011;15238;49.082;9.102;2023-03-17T12:08:44;9.93;;;2.95;;
27889;SDS011;15238;49.082;9.102;2023-03-17T12:10:52;3.05;;;2.25;;
27889;SDS011;15238;49.082;9.102;2023-03-17T12:12:55;5.90;;;2.45;;
27889;SDS011;15238;49.082;9.102;2023-03-17T12:15:01;6.20;;;2.65;;
27889;SDS011;15238;49.082;9.102;2023-03-17T12:17:14;3.60;;;2.33;;
27889;SDS011;15238;49.082;9.102;2023-03-17T12:19:41;6.38;;;2.25;;
27889;SDS011;15238;49.082;9.102;2023-03-17T12:21:44;5.25;;;2.17;;
27889;SDS011;15238;49.082;9.102;2023-03-17T12:26:17;4.35;;;2.10;;
27889;SDS011;15238;49.082;9.102;2023-03-17T12:28:24;5.00;;;2.10;;
27889;SDS011;15238;49.082;9.102;2023-03-17T12:37:25;3.00;;;1.80;;
27889;SDS011;15238;49.082;9.102;2023-03-17T12:39:30;3.08;;;1.90;;
27889;SDS011;15238;49.082;9.102;2023-03-17T12:41:52;5.47;;;1.77;;
27889;SDS011;15238;49.082;9.102;2023-03-17T12:53:23;2.20;;;1.52;;
27889;SDS011;15238;49.082;9.102;2023-03-17T12:55:28;6.57;;;2.22;;
27889;SDS011;15238;49.082;9.102;2023-03-17T12:57:45;3.67;;;1.60;;
27889;SDS011;15238;49.082;9.102;2023-03-17T12:59:57;4.40;;;2.15;;
27889;SDS011;15238;49.082;9.102;2023-03-17T13:04:27;3.92;;;2.03;;
27889;SDS011;15238;49.082;9.102;2023-03-17T13:15:57;3.03;;;1.52;;
27889;SDS011;15238;49.082;9.102;2023-03-17T13:20:15;2.67;;;1.45;;
27889;SDS011;15238;49.082;9.102;2023-03-17T13:24:22;3.17;;;1.70;;
27889;SDS011;15238;49.082;9.102;2023-03-17T13:28:53;7.30;;;1.70;;
27889;SDS011;15238;49.082;9.102;2023-03-17T13:35:13;3.63;;;1.73;;
27889;SDS011;15238;49.082;9.102;2023-03-17T13:37:21;5.55;;;1.80;;
27889;SDS011;15238;49.082;9.102;2023-03-17T13:41:54;4.20;;;2.00;;
27889;SDS011;15238;49.082;9.102;2023-03-17T13:44:42;4.10;;;2.00;;
27889;SDS011;15238;49.082;9.102;2023-03-17T13:47:23;6.03;;;2.20;;